createdAt,value
2023-02-25T00:02:32.427Z,21.20
2023-02-25T00:07:34.499Z,20.90
2023-02-25T00:12:36.453Z,21.00
2023-02-25T00:17:39.973Z,20.70
2023-02-25T00:22:42.492Z,21.20
2023-02-25T00:27:44.762Z,21.00
2023-02-25T00:32:46.848Z,21.10
2023-02-25T00:37:50.838Z,21.20
2023-02-25T00:42:53.018Z,21.20
2023-02-25T00:47:56.153Z,21.40
2023-02-25T00:52:58.160Z,21.50
2023-02-25T00:58:03.696Z,21.60
2023-02-25T01:03:05.772Z,21.60
2023-02-25T01:08:07.819Z,21.60
2023-02-25T01:13:09.875Z,21.70
2023-02-25T01:18:12.158Z,21.40
2023-02-25T01:23:14.152Z,21.70
2023-02-25T01:28:16.152Z,21.80
2023-02-25T01:33:18.325Z,21.80
2023-02-25T01:38:20.333Z,22.00
2023-02-25T01:43:22.335Z,21.90
2023-02-25T01:48:27.695Z,22.10
2023-02-25T01:53:33.213Z,22.40
2023-02-25T01:58:35.205Z,22.90
2023-02-25T02:03:37.980Z,23.00
2023-02-25T02:08:41.029Z,22.70
2023-02-25T02:13:46.628Z,22.90
2023-02-25T02:23:56.827Z,23.20
2023-02-25T02:29:17.331Z,22.80
2023-02-25T02:34:31.463Z,23.10
2023-02-25T02:39:36.410Z,23.60
2023-02-25T02:44:41.494Z,23.60
2023-02-25T02:49:48.514Z,23.50
2023-02-25T02:54:53.522Z,23.20
2023-02-25T02:59:58.096Z,23.40
2023-02-25T03:05:02.107Z,23.30
2023-02-25T03:10:05.766Z,23.30
2023-02-25T03:15:08.890Z,23.10
2023-02-25T03:20:21.448Z,22.80
2023-02-25T03:30:28.613Z,22.60
2023-02-25T03:35:32.164Z,22.50
2023-02-25T03:45:37.845Z,22.70
2023-02-25T03:50:59.741Z,22.60
2023-02-25T03:56:05.314Z,23.00
2023-02-25T04:01:10.112Z,23.20
2023-02-25T04:06:13.158Z,23.50
2023-02-25T04:11:15.388Z,23.10
2023-02-25T04:16:18.176Z,23.50
2023-02-25T04:21:29.641Z,23.20
2023-02-25T04:26:31.946Z,23.20
2023-02-25T04:31:34.031Z,23.00
2023-02-25T04:36:36.131Z,22.70
2023-02-25T04:41:38.141Z,22.50
2023-02-25T04:46:40.858Z,22.70
2023-02-25T04:51:42.893Z,22.30
2023-02-25T04:56:45.047Z,22.40
2023-02-25T05:01:47.152Z,22.20
2023-02-25T05:06:49.237Z,22.10
2023-02-25T05:11:51.238Z,22.10
2023-02-25T05:16:53.204Z,22.10
2023-02-25T05:21:55.159Z,22.10
2023-02-25T05:26:57.180Z,22.20
2023-02-25T05:31:59.412Z,21.50
2023-02-25T05:42:04.271Z,21.90
2023-02-25T05:47:07.543Z,22.10
2023-02-25T05:52:10.116Z,21.90
2023-02-25T05:57:12.079Z,21.90
2023-02-25T06:02:14.184Z,22.10
2023-02-25T06:07:16.324Z,21.80
2023-02-25T06:12:18.317Z,21.40
2023-02-25T06:17:20.333Z,21.60
2023-02-25T06:22:23.477Z,21.20
2023-02-25T06:27:25.446Z,20.90
2023-02-25T06:32:27.553Z,21.10
2023-02-25T06:37:29.648Z,21.20
2023-02-25T06:42:31.629Z,21.20
2023-02-25T06:47:33.731Z,20.60
2023-02-25T06:52:35.773Z,20.70
2023-02-25T06:57:37.772Z,20.30
2023-02-25T07:02:39.927Z,20.20
2023-02-25T07:07:42.028Z,20.20
2023-02-25T07:12:44.052Z,20.30
2023-02-25T07:17:46.090Z,19.90
2023-02-25T07:22:48.857Z,19.80
2023-02-25T07:27:50.898Z,19.70
2023-02-25T07:32:52.914Z,18.90
2023-02-25T07:37:54.993Z,18.90
2023-02-25T07:42:56.943Z,19.00
2023-02-25T07:47:58.938Z,19.00
2023-02-25T07:53:00.989Z,18.60
2023-02-25T07:58:03.067Z,18.70
2023-02-25T08:03:05.452Z,19.10
2023-02-25T08:08:07.590Z,19.40
2023-02-25T08:13:09.593Z,18.60
2023-02-25T08:18:12.087Z,19.10
2023-02-25T08:23:14.228Z,18.80
2023-02-25T08:28:16.241Z,18.80
2023-02-25T08:33:18.795Z,18.70
2023-02-25T08:38:20.803Z,18.40
2023-02-25T08:43:22.831Z,18.70
2023-02-25T08:48:24.913Z,18.20
2023-02-25T08:53:26.901Z,18.70
2023-02-25T08:58:29.594Z,18.50
2023-02-25T09:03:31.613Z,17.80
2023-02-25T09:08:33.720Z,18.10
2023-02-25T09:13:35.736Z,17.10
2023-02-25T09:18:37.730Z,17.20
2023-02-25T09:23:39.874Z,16.80
2023-02-25T09:28:41.990Z,16.70
2023-02-25T09:33:44.684Z,16.80
2023-02-25T09:43:52.123Z,16.40
2023-02-25T09:48:57.462Z,16.70
2023-02-25T09:54:13.761Z,16.40
2023-02-25T09:59:21.364Z,16.70
2023-02-25T10:04:46.635Z,16.40
2023-02-25T10:09:50.274Z,16.40
2023-02-25T10:14:58.365Z,17.00
2023-02-25T10:20:20.128Z,16.70
2023-02-25T10:25:25.123Z,16.70
2023-02-25T10:30:33.006Z,15.90
2023-02-25T10:35:39.247Z,16.30
2023-02-25T10:40:41.232Z,16.00
2023-02-25T10:45:45.552Z,16.20
2023-02-25T10:51:09.632Z,15.90
2023-02-25T10:56:11.652Z,15.90
2023-02-25T11:01:15.279Z,15.20
2023-02-25T11:06:25.080Z,15.00
2023-02-25T11:11:31.031Z,15.10
2023-02-25T11:16:35.335Z,14.10
2023-02-25T11:21:38.864Z,14.80
2023-02-25T11:26:45.628Z,14.20
2023-02-25T11:31:50.846Z,14.40
2023-02-25T11:36:53.099Z,13.90
2023-02-25T11:41:56.494Z,13.80
2023-02-25T11:47:01.364Z,13.90
2023-02-25T11:52:09.377Z,13.40
2023-02-25T11:57:17.939Z,12.60
2023-02-25T12:02:24.351Z,12.50
2023-02-25T12:07:51.428Z,12.30
2023-02-25T12:13:19.089Z,12.40
2023-02-25T12:18:39.843Z,12.00
2023-02-25T12:23:44.651Z,12.10
2023-02-25T12:28:54.649Z,11.60
2023-02-25T12:34:26.040Z,11.50
2023-02-25T12:39:46.555Z,10.90
2023-02-25T12:44:57.588Z,11.10
2023-02-25T12:49:59.650Z,10.50
2023-02-25T12:55:04.438Z,10.70
2023-02-25T13:00:25.214Z,10.30
2023-02-25T13:05:36.567Z,9.60
2023-02-25T13:10:54.158Z,9.40
2023-02-25T13:16:14.645Z,9.30
2023-02-25T13:21:19.745Z,9.50
2023-02-25T13:26:30.017Z,9.30
2023-02-25T13:31:41.040Z,9.00
2023-02-25T13:37:06.457Z,9.00
2023-02-25T13:42:17.820Z,8.80
2023-02-25T13:47:25.784Z,9.00
2023-02-25T14:09:06.880Z,10.60
2023-02-25T14:14:27.660Z,10.30
2023-02-25T14:19:48.989Z,11.00
2023-02-25T14:30:05.650Z,11.30
2023-02-25T14:35:37.158Z,11.00
2023-02-25T14:40:46.996Z,10.60
2023-02-25T14:45:58.556Z,10.20
2023-02-25T14:51:39.938Z,10.30
2023-02-25T14:56:49.252Z,10.60
2023-02-25T15:01:54.606Z,10.80
2023-02-25T15:07:20.510Z,10.70
2023-02-25T15:12:40.528Z,10.70
2023-02-25T15:17:55.735Z,11.50
2023-02-25T15:23:07.010Z,12.20
2023-02-25T15:28:27.949Z,12.70
2023-02-25T15:33:34.676Z,13.30
2023-02-25T15:38:46.904Z,13.30
2023-02-25T15:43:49.091Z,13.10
2023-02-25T15:49:12.981Z,12.40
2023-02-25T15:54:30.227Z,13.00
2023-02-25T15:59:44.320Z,13.30
2023-02-25T16:04:48.963Z,13.10
2023-02-25T16:09:55.126Z,13.30
2023-02-25T16:14:58.444Z,13.50
2023-02-25T16:25:03.316Z,13.90
2023-02-25T16:30:08.947Z,14.40
2023-02-25T16:35:18.459Z,14.90
2023-02-25T16:40:38.239Z,15.10
2023-02-25T16:45:45.336Z,14.50
2023-02-25T16:50:48.590Z,14.70
2023-02-25T16:55:51.478Z,15.40
2023-02-25T17:01:01.556Z,15.20
2023-02-25T17:06:06.293Z,15.60
2023-02-25T17:16:21.800Z,15.20
2023-02-25T17:21:26.067Z,15.80
2023-02-25T17:26:30.954Z,16.00
2023-02-25T17:31:41.734Z,16.00
2023-02-25T17:36:44.851Z,16.10
2023-02-25T17:41:47.485Z,16.30
2023-02-25T17:46:51.092Z,16.50
2023-02-25T17:51:55.033Z,16.40
2023-02-25T17:57:07.759Z,16.00
2023-02-25T18:02:35.986Z,15.90
2023-02-25T18:07:42.480Z,15.50
2023-02-25T18:12:47.310Z,15.00
2023-02-25T18:17:50.115Z,14.70
2023-02-25T18:22:53.429Z,14.50
2023-02-25T18:27:56.199Z,14.00
2023-02-25T18:32:59.300Z,14.50
2023-02-25T18:38:02.372Z,14.50
2023-02-25T18:43:04.848Z,14.40
2023-02-25T18:48:06.916Z,14.50
2023-02-25T18:53:13.404Z,14.60
2023-02-25T18:58:16.517Z,14.70
2023-02-25T19:03:32.687Z,14.60
2023-02-25T19:08:34.680Z,14.20
2023-02-25T19:13:38.614Z,14.60
2023-02-25T19:18:42.726Z,14.40
2023-02-25T19:23:45.363Z,13.60
2023-02-25T19:28:47.465Z,13.60
2023-02-25T19:33:49.777Z,13.60
2023-02-25T19:38:51.912Z,13.50
2023-02-25T19:43:54.169Z,12.90
2023-02-25T19:48:56.319Z,13.00
2023-02-25T19:53:58.369Z,12.90
2023-02-25T19:59:00.407Z,12.60
2023-02-25T20:04:02.608Z,12.40
2023-02-25T20:09:06.663Z,12.20
2023-02-25T20:14:08.778Z,12.10
2023-02-25T20:19:11.082Z,11.80
2023-02-25T20:24:13.584Z,11.70
2023-02-25T20:29:16.132Z,11.70
2023-02-25T20:34:19.854Z,11.90
2023-02-25T20:39:21.860Z,11.90
2023-02-25T20:44:23.989Z,11.70
2023-02-25T20:49:26.228Z,11.90
2023-02-25T20:54:28.264Z,11.80
2023-02-25T21:04:32.985Z,12.00
2023-02-25T21:09:35.084Z,12.00
2023-02-25T21:14:37.156Z,11.50
2023-02-25T21:19:39.197Z,12.10
2023-02-25T21:24:41.190Z,12.30
2023-02-25T21:29:43.192Z,12.50
2023-02-25T21:34:45.262Z,12.50
2023-02-25T21:39:47.343Z,12.60
2023-02-25T21:44:49.320Z,12.40
2023-02-25T21:49:51.356Z,13.00
2023-02-25T21:54:54.076Z,13.10
2023-02-25T21:59:56.986Z,13.10
2023-02-25T22:04:59.045Z,13.20
2023-02-25T22:10:01.059Z,13.30
2023-02-25T22:15:03.426Z,13.30
2023-02-25T22:20:06.290Z,12.90
2023-02-25T22:25:08.347Z,13.50
2023-02-25T22:30:12.581Z,13.50
2023-02-25T22:35:14.717Z,13.20
2023-02-25T22:40:16.780Z,13.50
2023-02-25T22:45:18.807Z,13.60
2023-02-25T22:50:20.964Z,13.70
2023-02-25T22:55:22.940Z,13.50
2023-02-25T23:00:26.890Z,13.60
2023-02-25T23:05:30.168Z,13.70
2023-02-25T23:10:32.197Z,13.80
2023-02-25T23:15:35.712Z,13.80
2023-02-25T23:20:39.431Z,13.90
2023-02-25T23:25:42.376Z,14.10
2023-02-25T23:35:49.895Z,13.80
2023-02-25T23:40:52.112Z,14.00
2023-02-25T23:45:54.142Z,14.10
2023-02-25T23:50:56.329Z,14.30
2023-02-25T23:56:04.681Z,14.30
